createdAt,value
2017-04-12T00:00:35.123Z,24.18
2017-04-12T00:01:57.822Z,24.12
2017-04-12T00:03:15.265Z,24.13
2017-04-12T00:04:32.008Z,24.24
2017-04-12T00:05:45.837Z,24.16
2017-04-12T00:07:05.592Z,24.31
2017-04-12T00:08:18.791Z,24.16
2017-04-12T00:09:35.615Z,24.24
2017-04-12T00:10:49.449Z,24.18
2017-04-12T00:12:03.305Z,24.2
2017-04-12T00:13:23.637Z,24.12
2017-04-12T00:14:36.875Z,24.21
2017-04-12T00:15:51.350Z,24.15
2017-04-12T00:17:13.965Z,24.24
2017-04-12T00:18:30.715Z,24.13
2017-04-12T00:19:49.890Z,24.06
2017-04-12T00:21:07.307Z,24.16
2017-04-12T00:22:35.228Z,24.08
2017-04-12T00:23:52.036Z,24
2017-04-12T00:25:11.775Z,24.02
2017-04-12T00:26:31.485Z,24
2017-04-12T00:27:53.553Z,23.97
2017-04-12T00:29:07.378Z,24.09
2017-04-12T00:30:21.886Z,24.12
2017-04-12T00:31:35.843Z,24.13
2017-04-12T00:32:49.711Z,24.1
2017-04-12T00:34:09.352Z,24.12
2017-04-12T00:35:23.210Z,24.16
2017-04-12T00:36:43.527Z,24.21
2017-04-12T00:37:56.782Z,24.2
2017-04-12T00:39:10.672Z,24.1
2017-04-12T00:40:27.465Z,24.1
2017-04-12T00:41:44.291Z,24.22
2017-04-12T00:43:04.033Z,24.22
2017-04-12T00:44:17.310Z,24.22
2017-04-12T00:45:31.247Z,24.2
2017-04-12T00:46:44.387Z,24.2
2017-04-12T00:47:58.239Z,24.22
2017-04-12T00:49:14.970Z,24.25
2017-04-12T00:50:31.700Z,24.18
2017-04-12T00:51:48.528Z,24.21
2017-04-12T00:53:01.779Z,24.09
2017-04-12T00:54:19.187Z,24.12
2017-04-12T00:55:33.015Z,24.15
2017-04-12T00:56:50.433Z,24.16
2017-04-12T00:58:03.754Z,24.1
2017-04-12T00:59:23.476Z,24.2
2017-04-12T01:00:37.187Z,24.22
2017-04-12T01:01:51.636Z,24.21
2017-04-12T01:03:16.668Z,24.09
2017-04-12T01:04:30.514Z,24.12
2017-04-12T01:05:44.366Z,24.12
2017-04-12T01:07:01.766Z,24.09
2017-04-12T01:08:15.595Z,24.06
2017-04-12T01:09:29.454Z,24.12
2017-04-12T01:10:43.324Z,24.1
2017-04-12T01:12:00.151Z,24.06
2017-04-12T01:13:19.942Z,24.12
2017-04-12T01:14:40.310Z,24.12
2017-04-12T01:15:57.126Z,24.08
2017-04-12T01:17:13.964Z,23.98
2017-04-12T01:18:30.234Z,23.9
2017-04-12T01:19:44.138Z,23.93
2017-04-12T01:21:01.600Z,23.91
2017-04-12T01:22:21.322Z,23.91
2017-04-12T01:23:38.108Z,23.93
2017-04-12T01:24:55.544Z,23.88
2017-04-12T01:26:12.918Z,23.88
2017-04-12T01:27:26.823Z,23.91
2017-04-12T01:28:51.812Z,23.85
2017-04-12T01:30:12.087Z,23.9
2017-04-12T01:31:25.295Z,23.88
2017-04-12T01:32:44.410Z,23.84
2017-04-12T01:34:01.216Z,23.78
2017-04-12T01:35:14.448Z,23.72
2017-04-12T01:36:28.351Z,23.75
2017-04-12T01:37:48.094Z,23.68
2017-04-12T01:39:02.487Z,23.66
2017-04-12T01:40:16.422Z,23.69
2017-04-12T01:41:33.265Z,23.7
2017-04-12T01:42:55.901Z,23.68
2017-04-12T01:44:09.070Z,23.68
2017-04-12T01:45:22.470Z,23.75
2017-04-12T01:46:35.816Z,23.73
2017-04-12T01:47:52.640Z,23.65
2017-04-12T01:49:08.411Z,23.63
2017-04-12T01:50:22.222Z,23.54
2017-04-12T01:51:39.629Z,23.58
2017-04-12T01:52:56.959Z,23.51
2017-04-12T01:54:12.609Z,23.55
2017-04-12T01:55:29.413Z,23.61
2017-04-12T01:56:48.422Z,23.57
2017-04-12T01:58:01.640Z,23.53
2017-04-12T01:59:18.543Z,23.66
2017-04-12T02:00:32.361Z,23.63
2017-04-12T02:01:49.122Z,23.53
2017-04-12T02:03:04.191Z,23.65
2017-04-12T02:04:17.564Z,23.75
2017-04-12T02:05:34.323Z,23.63
2017-04-12T02:06:51.718Z,23.72
2017-04-12T02:08:14.446Z,23.61
2017-04-12T02:09:31.265Z,23.6
2017-04-12T02:10:50.354Z,23.63
2017-04-12T02:12:06.116Z,23.73
2017-04-12T02:13:19.954Z,23.7
2017-04-12T02:14:42.683Z,23.63
2017-04-12T02:16:05.347Z,23.53
2017-04-12T02:17:18.662Z,23.58
2017-04-12T02:18:33.113Z,23.68
2017-04-12T02:19:49.951Z,23.66
2017-04-12T02:21:04.370Z,23.7
2017-04-12T02:22:24.062Z,23.72
2017-04-12T02:23:38.504Z,23.73
2017-04-12T02:24:52.397Z,23.6
2017-04-12T02:26:09.796Z,23.61
2017-04-12T02:27:32.447Z,23.63
2017-04-12T02:28:52.200Z,23.6
2017-04-12T02:30:06.647Z,23.72
2017-04-12T02:31:26.393Z,23.68
2017-04-12T02:32:43.677Z,23.73
2017-04-12T02:33:58.061Z,23.63
2017-04-12T02:35:11.353Z,23.72
2017-04-12T02:36:28.771Z,23.7
2017-04-12T02:37:42.587Z,23.69
2017-04-12T02:38:55.914Z,23.65
2017-04-12T02:40:08.549Z,23.6
2017-04-12T02:41:31.130Z,23.58
2017-04-12T02:42:44.979Z,23.55
2017-04-12T02:43:58.396Z,23.54
2017-04-12T02:45:12.241Z,23.46
2017-04-12T02:46:28.428Z,23.38
2017-04-12T02:47:51.091Z,23.38
2017-04-12T02:49:05.502Z,23.33
2017-04-12T02:50:22.234Z,23.33
2017-04-12T02:51:34.978Z,23.28
2017-04-12T02:52:47.716Z,23.4
2017-04-12T02:54:01.570Z,23.31
2017-04-12T02:55:15.294Z,23.22
2017-04-12T02:56:29.705Z,23.25
2017-04-12T02:57:46.488Z,23.17
2017-04-12T02:59:06.812Z,23.04
2017-04-12T03:00:20.663Z,23.07
2017-04-12T03:01:33.915Z,23.12
2017-04-12T03:02:47.131Z,23.01
2017-04-12T03:04:06.842Z,22.98
2017-04-12T03:05:23.593Z,22.92
2017-04-12T03:06:37.492Z,22.98
2017-04-12T03:07:54.238Z,22.95
2017-04-12T03:09:14.497Z,22.95
2017-04-12T03:10:31.347Z,22.91
2017-04-12T03:11:53.441Z,22.95
2017-04-12T03:13:06.667Z,22.91
2017-04-12T03:14:23.475Z,23
2017-04-12T03:15:37.962Z,22.92
2017-04-12T03:16:54.785Z,22.94
2017-04-12T03:18:08.179Z,23
2017-04-12T03:19:24.890Z,22.92
2017-04-12T03:20:38.778Z,23.01
2017-04-12T03:21:52.038Z,22.97
2017-04-12T03:23:05.876Z,22.92
2017-04-12T03:24:25.671Z,23
2017-04-12T03:25:39.022Z,22.94
2017-04-12T03:26:52.934Z,22.86
2017-04-12T03:28:07.404Z,22.85
2017-04-12T03:29:21.235Z,22.83
2017-04-12T03:30:36.304Z,22.8
2017-04-12T03:31:52.548Z,22.76
2017-04-12T03:33:10.002Z,22.76
2017-04-12T03:34:32.666Z,22.7
2017-04-12T03:35:52.363Z,22.65
2017-04-12T03:37:05.698Z,22.68
2017-04-12T03:38:19.542Z,22.64
2017-04-12T03:39:33.365Z,22.7
2017-04-12T03:40:46.690Z,22.62
2017-04-12T03:42:01.128Z,22.54
2017-04-12T03:43:20.689Z,22.52
2017-04-12T03:44:35.118Z,22.58
2017-04-12T03:45:51.900Z,22.42
2017-04-12T03:47:08.133Z,22.33
2017-04-12T03:48:22.574Z,22.31
2017-04-12T03:49:45.303Z,22.35
2017-04-12T03:51:05.026Z,22.31
2017-04-12T03:52:18.947Z,22.24
2017-04-12T03:53:35.758Z,22.31
2017-04-12T03:54:58.464Z,22.27
2017-04-12T03:56:12.239Z,22.24
2017-04-12T03:57:27.290Z,22.24
2017-04-12T03:58:47.003Z,22.17
2017-04-12T04:00:06.216Z,22.12
2017-04-12T04:01:20.047Z,22.09
2017-04-12T04:02:40.370Z,22.09
2017-04-12T04:03:53.618Z,22.07
2017-04-12T04:05:08.087Z,22.06
2017-04-12T04:06:27.223Z,22.07
2017-04-12T04:07:44.461Z,22.03
2017-04-12T04:08:58.957Z,22.02
2017-04-12T04:10:15.754Z,21.99
2017-04-12T04:11:30.268Z,21.99
2017-04-12T04:12:47.680Z,21.96
2017-04-12T04:14:01.472Z,21.98
2017-04-12T04:15:15.233Z,21.88
2017-04-12T04:16:31.579Z,21.88
2017-04-12T04:17:46.042Z,21.92
2017-04-12T04:19:02.862Z,21.84
2017-04-12T04:20:23.130Z,21.88
2017-04-12T04:21:37.537Z,21.84
2017-04-12T04:22:57.257Z,21.84
2017-04-12T04:24:16.917Z,21.88
2017-04-12T04:25:33.698Z,21.82
2017-04-12T04:26:46.957Z,21.8
2017-04-12T04:28:01.999Z,21.92
2017-04-12T04:29:21.130Z,21.92
2017-04-12T04:30:40.909Z,21.91
2017-04-12T04:31:54.799Z,21.9
2017-04-12T04:33:11.056Z,21.91
2017-04-12T04:34:28.409Z,21.88
2017-04-12T04:35:56.332Z,21.86
2017-04-12T04:37:12.365Z,21.92
2017-04-12T04:38:26.211Z,21.88
2017-04-12T04:39:40.603Z,21.72
2017-04-12T04:40:54.323Z,21.77
2017-04-12T04:42:07.546Z,21.71
2017-04-12T04:43:21.483Z,21.77
2017-04-12T04:44:38.253Z,21.69
2017-04-12T04:45:59.864Z,21.68
2017-04-12T04:47:19.597Z,21.71
2017-04-12T04:48:32.900Z,21.77
2017-04-12T04:49:52.643Z,21.82
2017-04-12T04:51:12.274Z,21.86
2017-04-12T04:52:25.518Z,21.75
2017-04-12T04:53:39.974Z,21.77
2017-04-12T04:54:54.514Z,21.9
2017-04-12T04:56:10.619Z,21.83
2017-04-12T04:57:28.031Z,21.96
2017-04-12T04:58:41.931Z,21.91
2017-04-12T04:59:55.834Z,21.91
2017-04-12T05:01:16.213Z,21.9
2017-04-12T05:02:33.619Z,21.91
2017-04-12T05:03:53.317Z,21.91
2017-04-12T05:05:12.926Z,21.91
2017-04-12T05:06:32.656Z,21.99
2017-04-12T05:07:48.819Z,21.84
2017-04-12T05:09:08.526Z,21.86
2017-04-12T05:10:22.913Z,21.8
2017-04-12T05:11:40.372Z,21.8
2017-04-12T05:12:57.158Z,21.8
2017-04-12T05:14:13.952Z,21.82
2017-04-12T05:15:36.647Z,21.77
2017-04-12T05:16:50.564Z,21.84
2017-04-12T05:18:07.367Z,21.74
2017-04-12T05:19:27.068Z,21.98
2017-04-12T05:20:40.913Z,21.91
2017-04-12T05:22:02.952Z,21.83
2017-04-12T05:23:23.293Z,21.84
2017-04-12T05:24:40.075Z,21.79
2017-04-12T05:26:02.712Z,21.72
2017-04-12T05:27:16.419Z,21.75
2017-04-12T05:28:30.369Z,21.67
2017-04-12T05:29:47.749Z,21.62
2017-04-12T05:31:01.554Z,21.62
2017-04-12T05:32:18.950Z,21.56
2017-04-12T05:33:32.316Z,21.58
2017-04-12T05:34:46.057Z,21.58
2017-04-12T05:36:06.394Z,21.59
2017-04-12T05:37:22.642Z,21.64
2017-04-12T05:38:41.802Z,21.77
2017-04-12T05:39:56.246Z,21.75
2017-04-12T05:41:13.667Z,21.82
2017-04-12T05:42:29.822Z,21.86
2017-04-12T05:43:46.599Z,21.86
2017-04-12T05:45:00.422Z,21.91
2017-04-12T05:46:17.197Z,21.91
2017-04-12T05:47:31.592Z,21.86
2017-04-12T05:48:44.834Z,21.83
2017-04-12T05:49:58.702Z,21.83
2017-04-12T05:51:14.929Z,21.82
2017-04-12T05:52:28.152Z,21.82
2017-04-12T05:53:44.837Z,21.75
2017-04-12T05:55:02.158Z,21.74
2017-04-12T05:56:16.548Z,21.71
2017-04-12T05:57:30.399Z,21.71
2017-04-12T05:58:44.861Z,21.71
2017-04-12T06:00:05.133Z,21.75
2017-04-12T06:01:27.220Z,21.72
2017-04-12T06:02:49.905Z,21.71
2017-04-12T06:04:06.660Z,21.79
2017-04-12T06:05:21.776Z,21.77
2017-04-12T06:06:36.190Z,21.69
2017-04-12T06:07:50.007Z,21.71
2017-04-12T06:09:06.763Z,21.8
2017-04-12T06:10:27.121Z,21.9
2017-04-12T06:11:49.809Z,21.88
2017-04-12T06:13:03.687Z,21.83
2017-04-12T06:14:17.075Z,21.75
2017-04-12T06:15:30.288Z,21.91
2017-04-12T06:16:44.744Z,21.83
2017-04-12T06:18:01.533Z,21.83
2017-04-12T06:19:18.329Z,21.9
2017-04-12T06:20:38.044Z,21.79
2017-04-12T06:21:52.554Z,21.8
2017-04-12T06:23:07.030Z,21.88
2017-04-12T06:24:23.871Z,21.9
2017-04-12T06:25:38.879Z,21.86
2017-04-12T06:26:58.599Z,21.75
2017-04-12T06:28:24.221Z,21.69
2017-04-12T06:29:46.856Z,21.58
2017-04-12T06:31:01.301Z,21.54
2017-04-12T06:32:23.932Z,21.59
2017-04-12T06:33:43.614Z,21.47
2017-04-12T06:35:00.289Z,21.49
2017-04-12T06:36:14.668Z,21.52
2017-04-12T06:37:37.359Z,21.5
2017-04-12T06:38:54.135Z,21.46
2017-04-12T06:40:08.060Z,21.47
2017-04-12T06:41:25.438Z,21.49
2017-04-12T06:42:39.905Z,21.49
2017-04-12T06:43:57.278Z,21.46
2017-04-12T06:45:11.122Z,21.42
2017-04-12T06:46:30.767Z,21.34
2017-04-12T06:47:48.188Z,21.37
2017-04-12T06:49:01.447Z,21.4
2017-04-12T06:50:14.841Z,21.47
2017-04-12T06:51:31.622Z,21.47
2017-04-12T06:52:49.039Z,21.47
2017-04-12T06:54:16.983Z,21.59
2017-04-12T06:55:33.146Z,21.5
2017-04-12T06:56:53.455Z,21.5
2017-04-12T06:58:09.632Z,21.64
2017-04-12T06:59:24.029Z,21.56
2017-04-12T07:00:43.788Z,21.59
2017-04-12T07:01:58.271Z,21.53
2017-04-12T07:03:11.023Z,21.52
2017-04-12T07:04:36.617Z,21.53
2017-04-12T07:05:55.798Z,21.59
2017-04-12T07:07:12.023Z,21.5
2017-04-12T07:08:31.769Z,21.46
2017-04-12T07:09:45.058Z,21.49
2017-04-12T07:11:04.781Z,21.47
2017-04-12T07:12:18.626Z,21.54
2017-04-12T07:13:31.879Z,21.46
2017-04-12T07:14:45.146Z,21.47
2017-04-12T07:15:59.630Z,21.5
2017-04-12T07:17:16.404Z,21.47
2017-04-12T07:18:31.488Z,21.49
2017-04-12T07:19:44.799Z,21.56
2017-04-12T07:20:59.266Z,21.59
2017-04-12T07:22:12.392Z,21.54
2017-04-12T07:23:26.798Z,21.52
2017-04-12T07:24:41.307Z,21.53
2017-04-12T07:25:55.145Z,21.58
2017-04-12T07:27:17.786Z,21.52
2017-04-12T07:28:34.648Z,21.61
2017-04-12T07:29:48.482Z,21.62
2017-04-12T07:31:05.750Z,21.58
2017-04-12T07:32:28.405Z,21.61
2017-04-12T07:33:51.092Z,21.56
2017-04-12T07:35:10.789Z,21.59
2017-04-12T07:36:27.699Z,21.62
2017-04-12T07:37:47.378Z,21.61
2017-04-12T07:39:00.602Z,21.54
2017-04-12T07:40:15.066Z,21.58
2017-04-12T07:41:32.396Z,21.54
2017-04-12T07:42:46.859Z,21.53
2017-04-12T07:44:00.219Z,21.53
2017-04-12T07:45:19.950Z,21.59
2017-04-12T07:46:34.386Z,21.52
2017-04-12T07:47:47.723Z,21.54
2017-04-12T07:49:01.649Z,21.53
2017-04-12T07:50:15.590Z,21.59
2017-04-12T07:51:34.230Z,21.59
2017-04-12T07:52:50.557Z,21.54
2017-04-12T07:54:06.744Z,21.56
2017-04-12T07:55:27.087Z,21.53
2017-04-12T07:56:40.996Z,21.71
2017-04-12T07:57:57.301Z,21.53
2017-04-12T07:59:11.133Z,21.62
2017-04-12T08:00:27.814Z,21.61
2017-04-12T08:01:41.171Z,21.59
2017-04-12T08:02:55.131Z,21.64
2017-04-12T08:04:11.919Z,21.54
2017-04-12T08:05:29.297Z,21.54
2017-04-12T08:06:51.322Z,21.61
2017-04-12T08:08:11.022Z,21.62
2017-04-12T08:09:24.565Z,21.65
2017-04-12T08:10:43.154Z,21.64
2017-04-12T08:11:56.861Z,21.65
2017-04-12T08:13:13.134Z,21.59
2017-04-12T08:14:27.335Z,21.56
2017-04-12T08:15:41.048Z,21.62
2017-04-12T08:16:57.781Z,21.61
2017-04-12T08:18:11.102Z,21.56
2017-04-12T08:19:23.900Z,21.58
2017-04-12T08:20:46.529Z,21.62
2017-04-12T08:22:03.349Z,21.52
2017-04-12T08:23:23.050Z,21.56
2017-04-12T08:24:38.693Z,21.59
2017-04-12T08:25:51.323Z,21.54
2017-04-12T08:27:13.958Z,21.54
2017-04-12T08:28:27.321Z,21.59
2017-04-12T08:29:40.550Z,21.56
2017-04-12T08:30:55.001Z,21.61
2017-04-12T08:32:09.410Z,21.54
2017-04-12T08:33:22.755Z,21.58
2017-04-12T08:34:37.211Z,21.58
2017-04-12T08:35:59.198Z,21.54
2017-04-12T08:37:13.106Z,21.56
2017-04-12T08:38:29.393Z,21.64
2017-04-12T08:39:48.996Z,21.64
2017-04-12T08:41:03.357Z,21.56
2017-04-12T08:42:17.825Z,21.58
2017-04-12T08:43:31.652Z,21.47
2017-04-12T08:44:48.400Z,21.42
2017-04-12T08:46:01.500Z,21.44
2017-04-12T08:47:15.340Z,21.44
2017-04-12T08:48:29.235Z,21.47
2017-04-12T08:49:46.144Z,21.44
2017-04-12T08:51:02.776Z,21.54
2017-04-12T08:52:16.465Z,21.46
2017-04-12T08:53:32.676Z,21.47
2017-04-12T08:54:46.005Z,21.43
2017-04-12T08:55:59.861Z,21.47
2017-04-12T08:57:19.615Z,21.49
2017-04-12T08:58:32.329Z,21.62
2017-04-12T08:59:46.143Z,21.44
2017-04-12T09:01:02.931Z,21.53
2017-04-12T09:02:16.735Z,21.54
2017-04-12T09:03:29.879Z,21.54
2017-04-12T09:04:49.599Z,21.53
2017-04-12T09:06:02.378Z,21.5
2017-04-12T09:07:16.271Z,21.47
2017-04-12T09:08:30.696Z,21.44
2017-04-12T09:09:43.310Z,21.43
2017-04-12T09:11:00.109Z,21.46
2017-04-12T09:12:14.612Z,21.35
2017-04-12T09:13:34.313Z,21.34
2017-04-12T09:14:48.706Z,21.38
2017-04-12T09:16:06.068Z,21.38
2017-04-12T09:17:22.741Z,21.34
2017-04-12T09:18:37.178Z,21.37
2017-04-12T09:19:59.846Z,21.38
2017-04-12T09:21:16.529Z,21.38
2017-04-12T09:22:39.379Z,21.32
2017-04-12T09:23:52.647Z,21.34
2017-04-12T09:25:11.847Z,21.1
2017-04-12T09:26:26.310Z,20.95
2017-04-12T09:27:43.147Z,20.74
2017-04-12T09:28:57.585Z,20.69
2017-04-12T09:30:12.033Z,20.59
2017-04-12T09:31:26.425Z,20.48
2017-04-12T09:32:43.185Z,20.38
2017-04-12T09:34:07.954Z,20.29
2017-04-12T09:35:27.826Z,20.24
2017-04-12T09:36:44.081Z,20.16
2017-04-12T09:37:57.922Z,20.06
2017-04-12T09:39:10.143Z,19.99
2017-04-12T09:40:23.833Z,19.83
2017-04-12T09:41:48.712Z,19.73
2017-04-12T09:43:05.391Z,19.48
2017-04-12T09:44:18.553Z,19.31
2017-04-12T09:45:31.895Z,19.41
2017-04-12T09:46:44.932Z,19.26
2017-04-12T09:47:57.566Z,19.16
2017-04-12T09:49:13.825Z,19.22
2017-04-12T09:50:33.574Z,19.19
2017-04-12T09:51:50.877Z,19.11
2017-04-12T09:53:04.196Z,19.04
2017-04-12T09:54:20.859Z,19.02
2017-04-12T09:55:41.123Z,18.99
2017-04-12T09:56:57.364Z,18.95
2017-04-12T09:58:11.163Z,18.99
2017-04-12T09:59:27.293Z,18.92
2017-04-12T10:00:41.717Z,18.94
2017-04-12T10:01:54.436Z,19.11
2017-04-12T10:03:08.316Z,19.16
2017-04-12T10:04:24.574Z,19.25
2017-04-12T10:05:42.001Z,19.36
2017-04-12T10:06:55.363Z,19.4
2017-04-12T10:08:11.646Z,19.36
2017-04-12T10:09:27.947Z,19.41
2017-04-12T10:10:41.287Z,19.47
2017-04-12T10:11:55.696Z,19.54
2017-04-12T10:13:14.313Z,19.46
2017-04-12T10:14:30.490Z,19.37
2017-04-12T10:15:47.898Z,19.43
2017-04-12T10:17:01.175Z,19.61
2017-04-12T10:18:17.308Z,19.58
2017-04-12T10:19:30.642Z,19.59
2017-04-12T10:20:49.212Z,19.62
2017-04-12T10:22:03.002Z,19.66
2017-04-12T10:23:19.680Z,19.68
2017-04-12T10:24:33.518Z,19.66
2017-04-12T10:25:47.476Z,19.58
2017-04-12T10:27:01.902Z,19.65
2017-04-12T10:28:19.280Z,19.61
2017-04-12T10:29:33.114Z,19.71
2017-04-12T10:30:52.307Z,19.91
2017-04-12T10:32:04.455Z,19.87
2017-04-12T10:33:18.945Z,19.95
2017-04-12T10:34:32.878Z,20.02
2017-04-12T10:35:45.851Z,19.98
2017-04-12T10:36:59.186Z,20.08
2017-04-12T10:38:13.620Z,20.1
2017-04-12T10:39:30.406Z,20.06
2017-04-12T10:40:44.235Z,20.08
2017-04-12T10:41:56.870Z,20.06
2017-04-12T10:43:16.377Z,20.2
2017-04-12T10:44:38.973Z,20.23
2017-04-12T10:45:52.785Z,20.24
2017-04-12T10:47:06.138Z,20.1
2017-04-12T10:48:25.348Z,20.05
2017-04-12T10:49:43.969Z,19.81
2017-04-12T10:50:57.018Z,19.98
2017-04-12T10:52:10.922Z,19.88
2017-04-12T10:53:32.463Z,20.05
2017-04-12T10:54:44.565Z,20.1
2017-04-12T10:56:00.884Z,20.18
2017-04-12T10:57:13.122Z,20.14
2017-04-12T10:58:27.026Z,20.17
2017-04-12T10:59:45.415Z,20.1
2017-04-12T11:01:01.674Z,20.11
2017-04-12T11:02:20.220Z,20.13
2017-04-12T11:03:32.937Z,20.02
2017-04-12T11:04:46.666Z,20.02
2017-04-12T11:06:05.794Z,20.11
2017-04-12T11:07:19.753Z,20.02
2017-04-12T11:08:37.098Z,19.98
2017-04-12T11:09:56.354Z,20.03
2017-04-12T11:11:10.191Z,20.16
2017-04-12T11:12:26.453Z,20.18
2017-04-12T11:13:40.259Z,20.28
2017-04-12T11:14:56.522Z,20.16
2017-04-12T11:16:10.299Z,20.28
2017-04-12T11:17:23.658Z,20.29
2017-04-12T11:18:36.213Z,20.41
2017-04-12T11:19:50.119Z,20.55
2017-04-12T11:21:09.855Z,20.74
2017-04-12T11:22:29.027Z,20.85
2017-04-12T11:23:57.014Z,21.22
2017-04-12T11:25:16.781Z,21.49
2017-04-12T11:26:30.625Z,21.56
2017-04-12T11:27:44.444Z,21.54
2017-04-12T11:29:04.764Z,21.54
2017-04-12T11:30:17.918Z,21.64
2017-04-12T11:31:31.660Z,21.67
2017-04-12T11:32:46.197Z,21.61
2017-04-12T11:34:05.392Z,21.5
2017-04-12T11:35:25.112Z,21.03
2017-04-12T11:36:47.848Z,20.72
2017-04-12T11:38:01.068Z,20.47
2017-04-12T11:39:13.873Z,20.54
2017-04-12T11:40:29.614Z,20.51
2017-04-12T11:41:42.328Z,20.58
2017-04-12T11:42:54.961Z,20.62
2017-04-12T11:44:11.676Z,20.59
2017-04-12T11:45:25.523Z,20.61
2017-04-12T11:46:40.590Z,20.77
2017-04-12T11:47:57.352Z,20.77
2017-04-12T11:49:10.360Z,20.7
2017-04-12T11:50:27.108Z,20.61
2017-04-12T11:51:43.360Z,20.55
2017-04-12T11:52:56.100Z,20.51
2017-04-12T11:54:09.914Z,20.42
2017-04-12T11:55:25.977Z,20.28
2017-04-12T11:56:42.747Z,20.28
2017-04-12T11:58:00.090Z,20.32
2017-04-12T11:59:19.292Z,20.32
2017-04-12T12:00:36.663Z,20.33
2017-04-12T12:01:49.959Z,20.32
2017-04-12T12:03:09.682Z,20.5
2017-04-12T12:04:26.483Z,20.43
2017-04-12T12:05:43.896Z,20.57
2017-04-12T12:06:57.208Z,20.64
2017-04-12T12:08:12.845Z,20.59
2017-04-12T12:09:25.537Z,20.64
2017-04-12T12:10:42.340Z,20.73
2017-04-12T12:11:55.620Z,20.64
2017-04-12T12:13:10.102Z,20.73
2017-04-12T12:14:24.543Z,20.97
2017-04-12T12:15:37.780Z,21.13
2017-04-12T12:16:51.038Z,20.95
2017-04-12T12:18:10.228Z,20.91
2017-04-12T12:19:26.484Z,20.92
2017-04-12T12:20:40.297Z,20.92
2017-04-12T12:21:57.092Z,20.79
2017-04-12T12:23:13.291Z,20.76
2017-04-12T12:24:29.569Z,20.79
2017-04-12T12:25:43.990Z,20.85
2017-04-12T12:27:03.608Z,20.74
2017-04-12T12:28:19.571Z,20.7
2017-04-12T12:29:32.918Z,20.52
2017-04-12T12:30:46.174Z,20.64
2017-04-12T12:31:59.919Z,20.69
2017-04-12T12:33:16.791Z,20.59
2017-04-12T12:34:30.070Z,20.58
2017-04-12T12:35:44.348Z,20.58
2017-04-12T12:37:00.031Z,20.47
2017-04-12T12:38:13.306Z,20.67
2017-04-12T12:39:26.089Z,20.62
2017-04-12T12:40:42.827Z,20.74
2017-04-12T12:42:00.268Z,20.72
2017-04-12T12:43:17.045Z,20.64
2017-04-12T12:44:33.825Z,20.61
2017-04-12T12:45:50.602Z,20.51
2017-04-12T12:47:07.984Z,20.55
2017-04-12T12:48:22.406Z,20.51
2017-04-12T12:49:39.226Z,20.67
2017-04-12T12:50:58.484Z,20.76
2017-04-12T12:52:11.630Z,21.28
2017-04-12T12:53:28.307Z,21.53
2017-04-12T12:54:43.970Z,21.62
2017-04-12T12:56:01.307Z,21.61
2017-04-12T12:57:15.157Z,21.52
2017-04-12T12:58:32.605Z,21.32
2017-04-12T12:59:52.318Z,21.37
2017-04-12T13:01:12.083Z,21.5
2017-04-12T13:02:25.941Z,21.38
2017-04-12T13:03:39.820Z,21.49
2017-04-12T13:05:02.508Z,21.91
2017-04-12T13:06:16.395Z,22.31
2017-04-12T13:07:30.809Z,22.55
2017-04-12T13:08:43.512Z,22.54
2017-04-12T13:09:56.808Z,22.62
2017-04-12T13:11:10.533Z,22.49
2017-04-12T13:12:27.286Z,22.7
2017-04-12T13:13:43.495Z,22.86
2017-04-12T13:15:00.418Z,23.02
2017-04-12T13:16:14.334Z,23
2017-04-12T13:17:28.831Z,22.64
2017-04-12T13:18:42.714Z,22.43
2017-04-12T13:19:55.980Z,22.2
2017-04-12T13:21:15.196Z,22.12
2017-04-12T13:22:29.657Z,21.9
2017-04-12T13:23:44.120Z,21.77
2017-04-12T13:25:01.552Z,21.83
2017-04-12T13:26:24.268Z,21.94
2017-04-12T13:27:43.975Z,22.06
2017-04-12T13:28:57.226Z,21.98
2017-04-12T13:30:11.081Z,22.09
2017-04-12T13:31:24.945Z,22.07
2017-04-12T13:32:38.909Z,21.96
2017-04-12T13:33:55.696Z,21.83
2017-04-12T13:35:09.567Z,21.75
2017-04-12T13:36:23.432Z,21.56
2017-04-12T13:37:36.660Z,21.44
2017-04-12T13:38:53.429Z,21.19
2017-04-12T13:40:13.140Z,20.99
2017-04-12T13:41:32.895Z,20.95
2017-04-12T13:42:46.803Z,21.1
2017-04-12T13:44:03.646Z,21.46
2017-04-12T13:45:23.382Z,21.71
2017-04-12T13:46:40.231Z,21.88
2017-04-12T13:47:56.416Z,22.15
2017-04-12T13:49:16.149Z,22.02
2017-04-12T13:50:36.488Z,21.52
2017-04-12T13:51:49.764Z,21.37
2017-04-12T13:53:07.241Z,21.07
2017-04-12T13:54:23.488Z,20.87
2017-04-12T13:55:43.204Z,20.7
2017-04-12T13:56:58.843Z,20.64
2017-04-12T13:58:12.772Z,20.84
2017-04-12T13:59:26.653Z,21.19
2017-04-12T14:00:40.557Z,21.68
2017-04-12T14:01:53.912Z,21.99
2017-04-12T14:03:08.361Z,22.31
2017-04-12T14:04:25.735Z,22.62
2017-04-12T14:05:43.088Z,22.72
2017-04-12T14:06:57.551Z,22.6
2017-04-12T14:08:11.500Z,21.92
2017-04-12T14:09:39.487Z,21.34
2017-04-12T14:10:56.290Z,21.28
2017-04-12T14:12:13.677Z,21.52
2017-04-12T14:13:30.529Z,21.8
2017-04-12T14:14:44.272Z,22.03
2017-04-12T14:15:58.154Z,22.2
2017-04-12T14:17:12.103Z,21.96
2017-04-12T14:18:31.286Z,21.99
2017-04-12T14:19:51.618Z,21.96
2017-04-12T14:21:08.396Z,22.18
2017-04-12T14:22:21.146Z,22.43
2017-04-12T14:23:34.404Z,22.52
2017-04-12T14:24:48.269Z,22.46
2017-04-12T14:26:04.544Z,22.18
2017-04-12T14:27:21.303Z,22.07
2017-04-12T14:28:40.953Z,21.84
2017-04-12T14:29:55.381Z,21.61
2017-04-12T14:31:15.177Z,20.97
2017-04-12T14:32:31.450Z,20.58
2017-04-12T14:33:45.301Z,20.01
2017-04-12T14:35:02.670Z,19.65
2017-04-12T14:36:16.463Z,19.48
2017-04-12T14:37:30.310Z,19.08
2017-04-12T14:38:47.661Z,18.99
2017-04-12T14:40:04.379Z,18.84
2017-04-12T14:41:21.724Z,18.75
2017-04-12T14:42:38.477Z,18.8
2017-04-12T14:43:54.753Z,18.98
2017-04-12T14:45:08.622Z,19.07
2017-04-12T14:46:22.410Z,19.18
2017-04-12T14:47:39.211Z,19.39
2017-04-12T14:49:01.887Z,19.5
2017-04-12T14:50:18.720Z,19.76
2017-04-12T14:51:36.108Z,20.01
2017-04-12T14:52:52.878Z,20.26
2017-04-12T14:54:12.579Z,20.39
2017-04-12T14:55:29.380Z,20.47
2017-04-12T14:56:41.615Z,20.74
2017-04-12T14:57:56.115Z,21.19
2017-04-12T14:59:12.889Z,21.54
2017-04-12T15:00:26.103Z,21.88
2017-04-12T15:01:45.277Z,22.18
2017-04-12T15:02:59.738Z,22.42
2017-04-12T15:04:14.163Z,22.47
2017-04-12T15:05:27.403Z,22.68
2017-04-12T15:06:47.703Z,22.47
2017-04-12T15:08:06.338Z,22.37
2017-04-12T15:09:19.043Z,22.33
2017-04-12T15:10:35.821Z,22.3
2017-04-12T15:11:55.551Z,22.54
2017-04-12T15:13:15.316Z,22.7
2017-04-12T15:14:34.538Z,22.97
2017-04-12T15:15:53.556Z,22.97
2017-04-12T15:17:10.344Z,22.94
2017-04-12T15:18:24.182Z,22.77
2017-04-12T15:19:38.049Z,22.58
2017-04-12T15:20:51.354Z,22.68
2017-04-12T15:22:10.953Z,22.76
2017-04-12T15:23:23.762Z,22.64
2017-04-12T15:24:37.567Z,22.31
2017-04-12T15:25:57.366Z,22.35
2017-04-12T15:27:13.135Z,22.35
2017-04-12T15:28:27.020Z,22.57
2017-04-12T15:29:41.486Z,22.86
2017-04-12T15:31:01.112Z,22.9
2017-04-12T15:32:14.936Z,22.7
2017-04-12T15:33:29.999Z,22.3
2017-04-12T15:34:43.841Z,22.21
2017-04-12T15:36:00.146Z,22.21
2017-04-12T15:37:17.570Z,22.2
2017-04-12T15:38:34.360Z,22.35
2017-04-12T15:39:48.808Z,22.37
2017-04-12T15:41:03.222Z,22.45
2017-04-12T15:42:17.056Z,23.01
2017-04-12T15:43:31.505Z,23.93
2017-04-12T15:44:45.928Z,24.18
2017-04-12T15:46:02.083Z,24.22
2017-04-12T15:47:15.358Z,24.13
2017-04-12T15:48:29.195Z,24.28
2017-04-12T15:49:43.587Z,23.58
2017-04-12T15:51:00.995Z,23.04
2017-04-12T15:52:17.791Z,22.54
2017-04-12T15:53:34.583Z,21.86
2017-04-12T15:54:57.259Z,21.54
2017-04-12T15:56:10.364Z,21.4
2017-04-12T15:57:23.518Z,21.12
2017-04-12T15:58:37.370Z,20.77
2017-04-12T15:59:51.243Z,20.62
2017-04-12T16:01:04.602Z,20.58
2017-04-12T16:02:17.838Z,20.57
2017-04-12T16:03:35.180Z,20.51
2017-04-12T16:04:51.985Z,20.73
2017-04-12T16:06:11.770Z,21.62
2017-04-12T16:07:26.214Z,22.55
2017-04-12T16:08:42.466Z,23.17
2017-04-12T16:09:54.667Z,23.87
2017-04-12T16:11:14.396Z,23.72
2017-04-12T16:12:31.822Z,23.1
2017-04-12T16:13:45.641Z,22.79
2017-04-12T16:15:00.109Z,22.3
2017-04-12T16:16:13.430Z,21.77
2017-04-12T16:17:27.278Z,21.62
2017-04-12T16:18:41.709Z,21.54
2017-04-12T16:19:55.045Z,21.49
2017-04-12T16:21:11.844Z,21.35
2017-04-12T16:22:28.599Z,21.03
2017-04-12T16:23:44.872Z,20.64
2017-04-12T16:24:58.699Z,20.31